Portada
METAR-TAF:

METAR-TAF

Aeropuertos :

Aeropuerto Internacional Gerald R. Ford

Grand Rapids, Míchigan, Estados Unidos

latitud: 42-52-51N, longitud: 085-31-22W, altitud: 242 m

Observación

El informe se hizo hace 34 minutos, a las 00:53 UTC
Viento 6 kt del norte-noreste
Temperatura 23°C
Humedad 44%
Presión 1017 hPa
Visibilidad: 16.1 km
Escasas nubes a una altura de 10000 ft
Escasas nubes a una altura de 25000 ft

METAR: KGRR 150053Z 02006KT 10SM FEW100 FEW250 23/10 A3004 RMK AO2 SLP168 T02280100

Hora: 21:27 (01:27 UTC)

Pronóstico

El informe se hizo hace 2 horas y 7 minutos, a las 23:20 UTC
Pronóstico válido del 15 a las 00 UTC al 15 a las 24 UTC
Viento 5 kt del noreste
Visibilidad: 10 km
Cielo despejado
A partir de las 15 a las 1800 UTC
Viento 6 kt del este-sureste
Visibilidad: 10 km
Cielo nuboso a una altura de 15000 ft

TAF: KGRR 142320Z 1500/1524 04005KT P6SM SKC FM151800 12006KT P6SM BKN150

Observaciones y pronósticos meteorológicos de más de 4000 aeropuertos (mensajes METAR y TAF).

Los puntos amarillos y rojos representan las estaciones disponibles.

Ponga el ratón en el punto deseado para ver el nombre de la estación.

Haga clic para ver las observaciones y los pronósticos meteorológicos.

Para cambiar el mapa : haga clic en los botones verdes con una cruz de color negro para hacer un zoom, en el botón verde con un guión para alejar o en las flechas verdes para mapas adyacentes.


METAR-TAF: